createdAt,value
2022-10-18T00:01:14.669Z,8.97
2022-10-18T00:06:14.041Z,8.37
2022-10-18T00:08:41.359Z,10.07
2022-10-18T00:11:15.404Z,8.63
2022-10-18T00:13:42.325Z,9.80
2022-10-18T00:16:17.024Z,8.93
2022-10-18T00:18:45.149Z,10.90
2022-10-18T00:21:18.851Z,9.77
2022-10-18T00:23:47.930Z,9.77
2022-10-18T00:26:35.451Z,9.33
2022-10-18T00:29:05.611Z,9.10
2022-10-18T00:31:37.909Z,10.63
2022-10-18T00:34:11.298Z,11.37
2022-10-18T00:36:41.221Z,10.50
2022-10-18T00:39:10.893Z,10.03
2022-10-18T00:41:38.148Z,11.40
2022-10-18T00:44:28.030Z,10.23
2022-10-18T00:47:09.361Z,11.60
2022-10-18T00:49:45.799Z,11.53
2022-10-18T00:52:30.126Z,10.70
2022-10-18T00:54:58.331Z,10.83
2022-10-18T00:57:26.037Z,12.70
2022-10-18T00:59:56.009Z,12.50
2022-10-18T01:02:25.359Z,11.13
2022-10-18T01:04:52.261Z,13.20
2022-10-18T01:07:44.359Z,12.10
2022-10-18T01:10:32.348Z,13.60
2022-10-18T01:13:11.011Z,13.60
2022-10-18T01:15:51.977Z,12.60
2022-10-18T01:18:43.475Z,13.90
2022-10-18T01:21:56.153Z,13.67
2022-10-18T01:24:40.984Z,14.37
2022-10-18T01:27:38.827Z,14.60
2022-10-18T01:30:38.158Z,14.20
2022-10-18T01:33:13.097Z,12.90
2022-10-18T01:35:50.439Z,15.60
2022-10-18T01:38:19.908Z,15.70
2022-10-18T01:40:49.884Z,16.23
2022-10-18T01:43:21.938Z,16.90
2022-10-18T01:45:50.121Z,13.77
2022-10-18T01:48:20.844Z,15.73
2022-10-18T01:50:50.295Z,15.17
2022-10-18T01:53:33.588Z,16.60
2022-10-18T01:56:49.083Z,15.73
2022-10-18T01:59:58.032Z,16.00
2022-10-18T02:02:51.090Z,16.07
2022-10-18T02:05:34.260Z,15.63
2022-10-18T02:08:48.069Z,15.87
2022-10-18T02:11:18.895Z,14.53
2022-10-18T02:14:01.233Z,15.50
2022-10-18T02:16:51.178Z,14.67
2022-10-18T02:19:30.450Z,13.87
2022-10-18T02:21:59.174Z,14.63
2022-10-18T02:24:36.024Z,16.00
2022-10-18T02:27:03.256Z,16.77
2022-10-18T02:29:35.141Z,15.23
2022-10-18T02:32:25.544Z,16.47
2022-10-18T02:35:04.430Z,16.60
2022-10-18T02:37:37.563Z,16.03
2022-10-18T02:40:09.565Z,17.00
2022-10-18T02:42:48.719Z,17.47
2022-10-18T02:45:16.200Z,16.73
2022-10-18T02:47:43.471Z,16.00
2022-10-18T02:50:13.173Z,16.80
2022-10-18T02:52:40.383Z,16.93
2022-10-18T02:55:09.743Z,18.07
2022-10-18T02:57:39.185Z,18.00
2022-10-18T03:00:07.402Z,18.40
2022-10-18T03:02:34.290Z,19.90
2022-10-18T03:05:01.222Z,17.40
2022-10-18T03:07:30.462Z,18.23
2022-10-18T03:09:57.521Z,17.70
2022-10-18T03:12:26.913Z,20.10
2022-10-18T03:14:56.751Z,17.60
2022-10-18T03:17:23.586Z,18.27
2022-10-18T03:19:50.485Z,19.37
2022-10-18T03:22:19.725Z,19.30
2022-10-18T03:24:46.714Z,20.67
2022-10-18T03:27:13.634Z,18.00
2022-10-18T03:29:40.731Z,20.23
2022-10-18T03:32:07.604Z,18.93
2022-10-18T03:34:36.976Z,19.90
2022-10-18T03:37:05.486Z,19.40
2022-10-18T03:39:37.077Z,19.73
2022-10-18T03:42:04.071Z,19.83
2022-10-18T03:44:32.992Z,20.53
2022-10-18T03:46:59.833Z,20.20
2022-10-18T03:49:27.701Z,20.53
2022-10-18T03:51:54.552Z,18.43
2022-10-18T03:54:21.394Z,18.93
2022-10-18T03:56:51.253Z,20.07
2022-10-18T03:59:18.142Z,20.40
2022-10-18T04:01:45.003Z,19.63
2022-10-18T04:04:11.920Z,20.80
2022-10-18T04:06:38.763Z,19.33
2022-10-18T04:09:10.204Z,21.63
2022-10-18T04:11:39.899Z,18.93
2022-10-18T04:14:06.803Z,21.13
2022-10-18T04:16:33.744Z,20.60
2022-10-18T04:19:03.126Z,20.50
2022-10-18T04:21:30.247Z,20.73
2022-10-18T04:24:00.109Z,20.93
2022-10-18T04:26:26.948Z,20.43
2022-10-18T04:28:53.868Z,20.17
2022-10-18T04:31:20.741Z,21.20
2022-10-18T04:33:49.716Z,19.67
2022-10-18T04:36:16.543Z,19.50
2022-10-18T04:38:43.425Z,20.07
2022-10-18T04:41:12.748Z,20.47
2022-10-18T04:43:42.720Z,20.50
2022-10-18T04:46:09.764Z,19.93
2022-10-18T04:48:44.071Z,19.53
2022-10-18T04:51:11.074Z,20.50
2022-10-18T04:53:37.907Z,19.63
2022-10-18T04:56:05.042Z,19.30
2022-10-18T04:58:32.549Z,19.10
2022-10-18T05:01:09.461Z,21.93
2022-10-18T05:03:39.430Z,19.70
2022-10-18T05:06:11.292Z,19.40
2022-10-18T05:08:38.508Z,19.40
2022-10-18T05:11:05.643Z,20.33
2022-10-18T05:13:32.514Z,19.50
2022-10-18T05:16:00.254Z,19.47
2022-10-18T05:18:27.348Z,18.93
2022-10-18T05:20:56.767Z,19.93
2022-10-18T05:23:26.810Z,20.70
2022-10-18T05:25:54.225Z,20.33
2022-10-18T05:28:41.103Z,20.57
2022-10-18T05:31:11.708Z,19.90
2022-10-18T05:33:38.592Z,20.10
2022-10-18T05:36:05.664Z,18.33
2022-10-18T05:38:32.796Z,20.90
2022-10-18T05:40:59.923Z,18.80
2022-10-18T05:43:30.098Z,18.93
2022-10-18T05:45:57.049Z,20.40
2022-10-18T05:48:24.158Z,21.37
2022-10-18T05:50:53.232Z,19.70
2022-10-18T05:53:37.143Z,21.27
2022-10-18T05:56:11.686Z,20.53
2022-10-18T05:58:42.062Z,19.60
2022-10-18T06:01:10.205Z,21.17
2022-10-18T06:03:40.227Z,19.93
2022-10-18T06:06:11.674Z,18.87
2022-10-18T06:08:40.414Z,18.10
2022-10-18T06:11:19.742Z,17.40
2022-10-18T06:13:51.350Z,17.90
2022-10-18T06:16:22.884Z,17.60
2022-10-18T06:18:52.715Z,16.87
2022-10-18T06:21:20.631Z,18.87
2022-10-18T06:23:58.998Z,17.80
2022-10-18T06:26:29.537Z,17.00
2022-10-18T06:28:58.953Z,16.63
2022-10-18T06:31:25.878Z,16.97
2022-10-18T06:33:52.838Z,17.07
2022-10-18T06:36:22.232Z,16.53
2022-10-18T06:38:50.076Z,16.27
2022-10-18T06:41:19.159Z,16.27
2022-10-18T06:43:56.807Z,16.70
2022-10-18T06:46:24.795Z,18.13
2022-10-18T06:48:57.665Z,17.60
2022-10-18T06:51:24.508Z,18.67
2022-10-18T06:54:06.281Z,16.80
2022-10-18T06:56:38.699Z,20.43
2022-10-18T06:59:10.309Z,17.27
2022-10-18T07:01:40.362Z,17.40
2022-10-18T07:04:09.580Z,18.00
2022-10-18T07:06:36.450Z,19.10
2022-10-18T07:09:03.888Z,19.60
2022-10-18T07:11:33.212Z,19.20
2022-10-18T07:14:03.213Z,18.77
2022-10-18T07:16:36.088Z,19.07
2022-10-18T07:19:05.280Z,19.50
2022-10-18T07:21:34.491Z,21.03
2022-10-18T07:24:03.886Z,21.80
2022-10-18T07:26:33.337Z,21.67
2022-10-18T07:29:06.620Z,22.80
2022-10-18T07:31:39.066Z,22.70
2022-10-18T07:34:10.909Z,23.73
2022-10-18T07:36:41.186Z,24.43
2022-10-18T07:39:08.228Z,25.90
2022-10-18T07:41:37.543Z,24.10
2022-10-18T07:44:05.139Z,23.13
2022-10-18T07:46:32.069Z,24.20
2022-10-18T07:48:59.655Z,23.50
2022-10-18T07:51:32.747Z,23.70
2022-10-18T07:53:59.890Z,21.67
2022-10-18T07:56:28.772Z,21.50
2022-10-18T07:58:58.194Z,22.50
2022-10-18T08:01:25.574Z,22.67
2022-10-18T08:03:53.544Z,20.80
2022-10-18T08:06:22.615Z,22.80
2022-10-18T08:08:52.306Z,20.87
2022-10-18T08:11:25.508Z,23.10
2022-10-18T08:13:57.411Z,21.10
2022-10-18T08:16:28.287Z,21.60
2022-10-18T08:19:00.313Z,21.40
2022-10-18T08:21:29.613Z,21.77
2022-10-18T08:23:56.502Z,24.27
2022-10-18T08:26:25.996Z,20.43
2022-10-18T08:29:09.845Z,21.17
2022-10-18T08:31:42.925Z,19.83
2022-10-18T08:34:09.733Z,18.83
2022-10-18T08:36:37.449Z,18.60
2022-10-18T08:39:04.341Z,18.70
2022-10-18T08:41:37.460Z,18.47
2022-10-18T08:44:26.926Z,19.03
2022-10-18T08:47:12.633Z,17.50
2022-10-18T08:49:48.496Z,17.60
2022-10-18T08:55:18.606Z,18.23
2022-10-18T08:57:52.484Z,17.77
2022-10-18T09:00:25.455Z,17.03
2022-10-18T09:03:35.909Z,17.60
2022-10-18T09:06:42.638Z,18.23
2022-10-18T09:09:18.329Z,16.70
2022-10-18T09:12:19.043Z,15.57
2022-10-18T09:15:07.960Z,15.67
2022-10-18T09:17:44.667Z,15.87
2022-10-18T09:20:38.207Z,15.30
2022-10-18T09:23:16.348Z,14.77
2022-10-18T09:25:58.332Z,16.00
2022-10-18T09:29:24.683Z,15.37
2022-10-18T09:32:59.321Z,15.40
2022-10-18T09:35:33.989Z,14.13
2022-10-18T09:38:10.651Z,14.33
2022-10-18T09:40:54.903Z,13.50
2022-10-18T09:43:39.438Z,14.87
2022-10-18T09:46:07.893Z,13.67
2022-10-18T09:48:50.332Z,13.30
2022-10-18T09:51:25.803Z,13.70
2022-10-18T09:54:12.519Z,11.63
2022-10-18T09:57:32.788Z,13.77
2022-10-18T10:00:01.753Z,12.23
2022-10-18T10:02:28.738Z,11.87
2022-10-18T10:04:55.811Z,11.60
2022-10-18T10:07:32.532Z,11.30
2022-10-18T10:10:27.340Z,10.90
2022-10-18T10:13:17.058Z,9.50
2022-10-18T10:15:52.344Z,9.23
2022-10-18T10:18:32.435Z,9.50
2022-10-18T10:21:07.618Z,7.83
2022-10-18T10:23:46.109Z,8.37
2022-10-18T10:26:33.866Z,7.67
2022-10-18T10:29:01.217Z,7.07
2022-10-18T10:31:33.574Z,6.67
2022-10-18T10:34:05.290Z,6.57
2022-10-18T10:36:35.772Z,6.20
2022-10-18T10:39:20.570Z,5.70
2022-10-18T10:41:54.139Z,5.57
2022-10-18T10:44:28.694Z,5.73
2022-10-18T10:47:00.814Z,4.40
2022-10-18T10:49:43.961Z,4.97
2022-10-18T10:52:28.587Z,4.73
2022-10-18T10:55:06.121Z,4.60
2022-10-18T10:57:46.583Z,4.17
2022-10-18T11:00:43.196Z,4.20
2022-10-18T11:03:29.243Z,4.30
2022-10-18T11:06:00.835Z,4.00
2022-10-18T11:08:38.377Z,3.37
2022-10-18T11:11:27.769Z,2.90
2022-10-18T11:14:30.553Z,3.70
2022-10-18T11:17:39.433Z,3.37
2022-10-18T11:20:19.401Z,2.63
2022-10-18T11:23:01.156Z,3.00
2022-10-18T11:25:42.185Z,3.17
2022-10-18T11:28:56.522Z,3.73
2022-10-18T11:31:42.186Z,3.20
2022-10-18T11:34:44.702Z,3.90
2022-10-18T11:37:31.106Z,2.67
2022-10-18T11:40:38.040Z,1.93
2022-10-18T11:44:01.105Z,1.53
2022-10-18T11:47:20.651Z,2.10
2022-10-18T11:50:03.371Z,2.00
2022-10-18T11:52:58.666Z,1.70
2022-10-18T11:55:49.592Z,1.90
2022-10-18T11:58:37.793Z,1.93
2022-10-18T12:01:04.586Z,2.60
2022-10-18T12:03:51.177Z,2.60
2022-10-18T12:06:30.754Z,3.17
2022-10-18T12:09:28.151Z,3.00
2022-10-18T12:12:03.082Z,2.73
2022-10-18T12:14:37.467Z,2.60
2022-10-18T12:17:51.604Z,3.60
2022-10-18T12:20:27.557Z,2.60
2022-10-18T12:23:31.787Z,2.50
2022-10-18T12:26:05.970Z,3.00
2022-10-18T12:28:38.807Z,2.33
2022-10-18T12:31:39.639Z,2.63
2022-10-18T12:34:21.353Z,2.83
2022-10-18T12:39:44.178Z,2.73
2022-10-18T12:42:28.811Z,3.07
2022-10-18T12:45:38.319Z,3.13
2022-10-18T12:48:07.335Z,2.87
2022-10-18T12:50:43.520Z,2.70
2022-10-18T12:53:10.359Z,2.47
2022-10-18T12:58:27.209Z,2.70
2022-10-18T13:01:03.841Z,2.97
2022-10-18T13:03:53.544Z,2.40
2022-10-18T13:06:23.640Z,2.73
2022-10-18T13:09:20.163Z,3.07
2022-10-18T13:11:51.787Z,2.50
2022-10-18T13:14:35.487Z,2.30
2022-10-18T13:17:45.022Z,2.70
2022-10-18T13:20:27.258Z,2.73
2022-10-18T13:23:37.121Z,2.20
2022-10-18T13:26:14.699Z,2.33
2022-10-18T13:29:08.771Z,2.30
2022-10-18T13:32:28.792Z,1.70
2022-10-18T13:34:55.850Z,3.03
2022-10-18T13:37:27.111Z,1.97
2022-10-18T13:40:24.656Z,2.83
2022-10-18T13:42:53.848Z,2.20
2022-10-18T13:45:35.767Z,2.07
2022-10-18T13:48:32.889Z,2.80
2022-10-18T13:51:38.734Z,3.33
2022-10-18T13:54:29.863Z,2.30
2022-10-18T13:57:31.727Z,2.00
2022-10-18T14:00:19.662Z,2.17
2022-10-18T14:03:31.730Z,2.30
2022-10-18T14:06:19.291Z,2.40
2022-10-18T14:09:25.485Z,2.87
2022-10-18T14:12:33.789Z,2.60
2022-10-18T14:15:17.698Z,2.87
2022-10-18T14:18:17.496Z,2.40
2022-10-18T14:21:13.347Z,3.07
2022-10-18T14:23:44.817Z,2.90
2022-10-18T14:26:15.479Z,2.30
2022-10-18T14:28:59.049Z,2.30
2022-10-18T14:31:27.633Z,2.80
2022-10-18T14:33:58.265Z,2.60
2022-10-18T14:36:36.141Z,2.33
2022-10-18T14:39:15.422Z,2.20
2022-10-18T14:41:56.442Z,2.77
2022-10-18T14:44:33.332Z,2.47
2022-10-18T14:47:00.258Z,5.23
2022-10-18T14:49:27.501Z,2.40
2022-10-18T14:52:00.361Z,2.73
2022-10-18T14:54:37.704Z,2.77
2022-10-18T14:57:07.010Z,3.23
2022-10-18T15:00:06.143Z,3.10
2022-10-18T15:02:37.716Z,2.87
2022-10-18T15:05:20.517Z,2.90
2022-10-18T15:07:50.596Z,2.37
2022-10-18T15:10:37.751Z,2.50
2022-10-18T15:13:11.137Z,2.67
2022-10-18T15:15:39.719Z,3.20
2022-10-18T15:18:08.526Z,2.90
2022-10-18T15:20:42.584Z,2.50
2022-10-18T15:23:39.032Z,2.50
2022-10-18T15:26:13.130Z,2.80
2022-10-18T15:29:00.401Z,3.00
2022-10-18T15:31:35.225Z,2.90
2022-10-18T15:34:17.850Z,2.40
2022-10-18T15:36:45.847Z,2.37
2022-10-18T15:39:22.411Z,2.57
2022-10-18T15:42:01.562Z,2.83
2022-10-18T15:44:34.770Z,2.90
2022-10-18T15:47:20.158Z,2.43
2022-10-18T15:49:47.082Z,2.27
2022-10-18T15:52:37.870Z,3.20
2022-10-18T15:55:30.244Z,2.03
2022-10-18T15:58:17.888Z,2.70
2022-10-18T16:00:46.385Z,3.53
2022-10-18T16:03:13.957Z,3.20
2022-10-18T16:05:43.925Z,2.40
2022-10-18T16:08:31.898Z,3.07
2022-10-18T16:11:01.940Z,2.87
2022-10-18T16:13:31.365Z,3.13
2022-10-18T16:16:00.812Z,2.57
2022-10-18T16:18:35.346Z,2.87
2022-10-18T16:21:04.261Z,2.80
2022-10-18T16:23:31.071Z,2.80
2022-10-18T16:25:58.306Z,3.23
2022-10-18T16:28:28.583Z,2.70
2022-10-18T16:31:01.266Z,2.97
2022-10-18T16:33:28.803Z,2.70
2022-10-18T16:36:01.390Z,3.07
2022-10-18T16:38:48.845Z,2.23
2022-10-18T16:41:17.440Z,3.23
2022-10-18T16:43:47.737Z,3.53
2022-10-18T16:46:22.638Z,3.40
2022-10-18T16:48:55.890Z,3.50
2022-10-18T16:51:27.340Z,3.00
2022-10-18T16:53:55.205Z,3.00
2022-10-18T16:56:33.826Z,3.33
2022-10-18T16:59:03.989Z,3.77
2022-10-18T17:01:34.421Z,2.43
2022-10-18T17:04:02.188Z,3.30
2022-10-18T17:06:35.349Z,3.10
2022-10-18T17:09:03.437Z,3.10
2022-10-18T17:11:31.156Z,3.90
2022-10-18T17:14:01.330Z,2.80
2022-10-18T17:16:35.428Z,3.17
2022-10-18T17:19:09.736Z,3.20
2022-10-18T17:21:36.898Z,3.53
2022-10-18T17:24:06.405Z,2.80
2022-10-18T17:26:34.720Z,3.57
2022-10-18T17:29:06.502Z,2.50
2022-10-18T17:31:36.182Z,3.60
2022-10-18T17:34:03.942Z,2.90
2022-10-18T17:36:36.217Z,2.40
2022-10-18T17:39:06.320Z,2.80
2022-10-18T17:41:33.735Z,3.37
2022-10-18T17:44:09.187Z,2.80
2022-10-18T17:46:38.930Z,3.67
2022-10-18T17:49:05.981Z,3.10
2022-10-18T17:51:46.896Z,2.40
2022-10-18T17:54:14.276Z,2.70
2022-10-18T17:56:45.577Z,3.27
2022-10-18T17:59:17.994Z,2.83
2022-10-18T18:01:48.389Z,3.40
2022-10-18T18:04:19.162Z,3.43
2022-10-18T18:06:52.975Z,3.20
2022-10-18T18:09:21.092Z,3.13
2022-10-18T18:11:54.784Z,3.37
2022-10-18T18:14:25.685Z,3.10
2022-10-18T18:16:52.896Z,3.10
2022-10-18T18:19:27.183Z,3.20
2022-10-18T18:21:59.128Z,3.30
2022-10-18T18:24:29.238Z,3.13
2022-10-18T18:26:59.153Z,3.00
2022-10-18T18:29:27.916Z,2.70
2022-10-18T18:31:55.173Z,4.27
2022-10-18T18:34:22.634Z,3.17
2022-10-18T18:36:52.048Z,3.80
2022-10-18T18:39:26.522Z,3.60
2022-10-18T18:41:53.766Z,4.10
2022-10-18T18:44:22.353Z,3.57
2022-10-18T18:46:52.264Z,3.03
2022-10-18T18:49:29.337Z,2.87
2022-10-18T18:51:58.673Z,4.53
2022-10-18T18:54:29.829Z,3.20
2022-10-18T18:57:05.427Z,2.83
2022-10-18T18:59:43.915Z,3.73
2022-10-18T19:02:15.707Z,3.00
2022-10-18T19:04:48.131Z,3.70
2022-10-18T19:07:18.348Z,3.27
2022-10-18T19:09:49.169Z,2.90
2022-10-18T19:12:20.422Z,2.73
2022-10-18T19:14:52.982Z,3.07
2022-10-18T19:17:24.389Z,3.00
2022-10-18T19:19:52.238Z,2.20
2022-10-18T19:22:27.969Z,2.27
2022-10-18T19:24:55.351Z,2.43
2022-10-18T19:27:22.292Z,2.30
2022-10-18T19:29:53.780Z,2.37
2022-10-18T19:32:23.182Z,2.43
2022-10-18T19:34:52.354Z,2.50
2022-10-18T19:37:23.893Z,2.30
2022-10-18T19:39:50.949Z,2.03
2022-10-18T19:42:21.126Z,2.50
2022-10-18T19:44:53.541Z,2.87
2022-10-18T19:47:22.970Z,2.60
2022-10-18T19:49:50.379Z,3.07
2022-10-18T19:52:17.476Z,1.83
2022-10-18T19:54:45.260Z,2.20
2022-10-18T19:57:12.362Z,2.60
2022-10-18T19:59:42.537Z,2.53
2022-10-18T20:02:15.314Z,2.80
2022-10-18T20:04:44.834Z,2.53
2022-10-18T20:07:14.661Z,1.83
2022-10-18T20:09:41.820Z,2.00
2022-10-18T20:12:11.401Z,1.87
2022-10-18T20:14:38.623Z,1.93
2022-10-18T20:17:06.313Z,2.30
2022-10-18T20:19:33.505Z,1.63
2022-10-18T20:22:00.785Z,2.03
2022-10-18T20:24:33.832Z,2.23
2022-10-18T20:27:00.973Z,1.50
2022-10-18T20:29:28.227Z,1.47
2022-10-18T20:31:58.077Z,2.43
2022-10-18T20:34:26.287Z,2.10
2022-10-18T20:37:05.475Z,2.20
2022-10-18T20:39:33.636Z,2.30
2022-10-18T20:42:00.694Z,1.63
2022-10-18T20:44:28.082Z,2.10
2022-10-18T20:46:57.318Z,2.40
2022-10-18T20:49:24.429Z,1.80
2022-10-18T20:51:51.523Z,2.30
2022-10-18T20:54:19.095Z,1.70
2022-10-18T20:56:48.312Z,1.93
2022-10-18T20:59:15.881Z,2.30
2022-10-18T21:01:43.479Z,2.00
2022-10-18T21:04:11.158Z,2.00
2022-10-18T21:06:44.706Z,1.60
2022-10-18T21:09:16.075Z,2.27
2022-10-18T21:11:45.954Z,1.23
2022-10-18T21:14:16.285Z,2.00
2022-10-18T21:16:46.787Z,1.30
2022-10-18T21:19:24.407Z,1.50
2022-10-18T21:22:00.328Z,1.97
2022-10-18T21:24:30.588Z,2.03
2022-10-18T21:26:57.730Z,2.20
2022-10-18T21:29:24.997Z,1.60
2022-10-18T21:31:59.492Z,1.40
2022-10-18T21:34:29.704Z,1.53
2022-10-18T21:36:56.663Z,1.90
2022-10-18T21:41:51.563Z,1.40
2022-10-18T21:44:23.701Z,1.73
2022-10-18T21:46:50.858Z,1.83
2022-10-18T21:49:23.482Z,1.70
2022-10-18T21:51:52.944Z,1.97
2022-10-18T21:54:20.426Z,2.13
2022-10-18T21:56:47.604Z,1.60
2022-10-18T21:59:19.804Z,2.17
2022-10-18T22:01:47.023Z,1.70
2022-10-18T22:04:21.663Z,1.80
2022-10-18T22:06:49.507Z,1.90
2022-10-18T22:09:17.076Z,1.87
2022-10-18T22:11:49.757Z,2.20
2022-10-18T22:14:25.289Z,2.20
2022-10-18T22:16:52.626Z,1.63
2022-10-18T22:19:20.133Z,2.03
2022-10-18T22:21:47.636Z,1.40
2022-10-18T22:24:14.728Z,2.00
2022-10-18T22:26:44.054Z,1.63
2022-10-18T22:29:20.320Z,2.03
2022-10-18T22:31:52.573Z,1.73
2022-10-18T22:34:24.016Z,2.03
2022-10-18T22:36:51.202Z,1.70
2022-10-18T22:39:18.228Z,1.97
2022-10-18T22:41:47.740Z,1.77
2022-10-18T22:44:15.094Z,2.30
2022-10-18T22:46:44.791Z,2.00
2022-10-18T22:49:12.174Z,1.50
2022-10-18T22:51:39.322Z,2.37
2022-10-18T22:54:08.787Z,1.93
2022-10-18T22:56:35.857Z,2.27
2022-10-18T22:59:05.338Z,2.40
2022-10-18T23:01:34.746Z,1.60
2022-10-18T23:04:02.025Z,2.00
2022-10-18T23:06:34.259Z,1.77
2022-10-18T23:09:10.019Z,1.67
2022-10-18T23:11:37.596Z,1.50
2022-10-18T23:14:06.810Z,1.37
2022-10-18T23:16:38.858Z,1.83
2022-10-18T23:19:05.900Z,2.27
2022-10-18T23:21:35.211Z,2.20
2022-10-18T23:24:05.262Z,1.80
2022-10-18T23:26:34.391Z,1.10
2022-10-18T23:29:01.389Z,1.30
2022-10-18T23:31:33.382Z,1.20
2022-10-18T23:34:05.186Z,1.70
2022-10-18T23:36:36.335Z,1.47
2022-10-18T23:39:06.467Z,1.20
2022-10-18T23:41:33.395Z,1.20
2022-10-18T23:44:02.683Z,1.17
2022-10-18T23:46:29.574Z,2.00
2022-10-18T23:48:56.414Z,1.20
2022-10-18T23:51:27.939Z,1.40
2022-10-18T23:53:57.783Z,1.50
2022-10-18T23:56:24.714Z,2.00
2022-10-18T23:58:53.859Z,1.70
